Plaza, Washington
Current Conditions -  °F | °C
As of 7:53 AM on Wednesday 22 Oct 2014 (Local Time) from KGEG Reporting Station
Broken Clouds Broken Clouds  
Wind Chill: 41°   Ceiling: 12000
Heat Index: 46°   Visibility: 10mi
Dew Point: 38°   Wind: 12mph
Humidity: 73%   Direction: 140°SE
Pressure: 29.91"   Gusts: NA
Location:  47.2196°N, 117.453°W
Report Text: KGEG 221453Z 14010KT 10SM SCT070 BKN120 08/03 A2991 RMK AO2 SLP130 T00780033 56005 $
Loading
Personal Weather Stations






























Interactive Weather Map
Tropical Storm Tracking
New forecast layout! Learn more

10-Day Weather Forecast

Advertisements
Track Severe Weather on mobile